• Join FlightAware (Why Join?)
  • Login
  • US Flag 
 
07:33AM EST


 

Airport Tracker/Info


-or-


 

Live Flight TrackerFlight Track Log ✈ WIG7117 ✈ 07-Jun-2013 ✈ KALB - KSYR

Flight Track Log - Related Links

Times and Time Zones

All times are in EDT time to prevent confusion due to time zone crossing. See the WIG7117 flight status page for this flight to view local times or setup timezone preferences in your user account.

Time Position Orientation Groundspeed Altitude Reporting Facility
EDT Latitude Longitude Course Direction KTS MPH feet Rate Location/Type
09:34PM 42.7631 -73.8089 326° Northwest 102 117 1,000  Level Boston Center
09:36PM 42.7878 -73.8319 326° Northwest 124 143 2,200 1,080 Climbing Boston Center
09:37PM 42.7956 -73.8803 282° West 130 150 3,400 1,140 Climbing Boston Center
09:38PM 42.8033 -73.9314 282° West 135 155 4,600 1,140 Climbing Boston Center
09:39PM 42.8089 -73.9769 279° West 131 151 5,800 1,080 Climbing Boston Center
09:40PM 42.8186 -74.0281 285° West 130 150 6,800 1,020 Climbing Boston Center
09:41PM 42.8264 -74.0764 282° West 133 153 7,900 1,020 Climbing Boston Center
09:42PM 42.8319 -74.1219 279° West 129 148 8,900 960 Climbing Boston Center
09:43PM 42.8414 -74.1758 283° West 125 144 9,900 540 Climbing Boston Center
09:44PM 42.8492 -74.2269 282° West 154 177 10,000  Climbing Boston Center
09:45PM 42.8586 -74.2839 283° West 174 200 10,000  Level Boston Center
09:45PM 42.8622 -74.3181 278° West 170 196 10,000  Level Boston Center
09:46PM 42.8694 -74.3778 279° West 162 186 10,000  Level Boston Center
09:47PM 42.8789 -74.4406 282° West 161 185 10,000 -60 Level Boston Center
09:48PM 42.8883 -74.4975 283° West 162 186 9,900  Descending Boston Center
09:49PM 42.8975 -74.5600 281° West 163 188 10,000  Climbing Boston Center
09:50PM 42.9067 -74.6228 281° West 163 188 10,000  Level Boston Center
09:51PM 42.9158 -74.6883 281° West 163 188 10,000  Level Boston Center
09:52PM 42.9250 -74.7511 281° West 163 188 10,000  Level Boston Center
09:53PM 42.9322 -74.8053 280° West 166 191 10,000  Level Boston Center
09:54PM 42.9414 -74.8681 281° West 167 192 10,000  Level Boston Center
09:55PM 42.9483 -74.9306 279° West 169 194 10,000  Level Boston Center
09:56PM 42.9614 -75.0050 284° West 170 196 10,000  Level Boston Center
09:57PM 42.9703 -75.0650 281° West 168 193 10,000  Level Boston Center
09:58PM 42.9772 -75.1247 279° West 168 193 10,000  Level Boston Center
09:59PM 42.9864 -75.1850 282° West 167 192 10,000  Level Boston Center
10:00PM 42.9953 -75.2450 281° West 164 189 10,000  Level Boston Center
10:01PM 43.0042 -75.3078 281° West 163 188 10,000  Level Boston Center
10:02PM 43.0108 -75.3678 279° West 162 186 10,000 -180 Level Boston Center
10:03PM 43.0153 -75.4389 275° West 163 188 9,700 -480 Descending Boston Center
10:04PM 43.0219 -75.5017 278° West 170 196 9,000 -720 Descending Boston Center
10:05PM 43.0267 -75.5617 276° West 167 192 8,300 -720 Descending Boston Center
10:06PM 43.0269 -75.6269 270° West 166 191 7,600 -720 Descending Boston Center
10:07PM 43.0231 -75.6864 265° West 161 185 6,900 -720 Descending Boston Center
10:09PM 43.0169 -75.7572 263° West 157 181 6,100 -480 Descending Boston Center
10:10PM 43.0131 -75.8167 265° West 158 182 6,000 -120 Descending Boston Center
10:11PM 43.0053 -75.8731 259° West 157 181 5,900 -480 Descending Boston Center
10:11PM 42.9994 -75.9236 261° West 161 185 5,200 -840 Descending Boston Center
10:12PM 42.9956 -75.9831 265° West 159 183 4,300 -900 Descending Boston Center
10:13PM 43.0019 -76.0431 278° West 151 174 3,500 -420 Descending Boston Center
10:14PM 43.0086 -76.1003 279° West 149 171 3,500  Level Boston Center
10:15PM 43.0150 -76.1575 279° West 151 174 3,500  Level Boston Center
10:16PM 43.0194 -76.2117 276° West 150 173 3,500 -240 Level Boston Center
10:17PM 43.0261 -76.2661 280° West 148 170 3,100 -540 Descending Boston Center
10:18PM 43.0347 -76.3178 283° West 143 165 2,500 -300 Descending Boston Center
10:19PM 43.0631 -76.3425 327° Northwest 129 148 2,500  Level Boston Center
10:20PM 43.0928 -76.3244 24° Northeast 126 145 2,500  Level Boston Center
10:21PM 43.1025 -76.2825 72° East 124 143 2,500 -300 Level Boston Center
10:22PM 43.1019 -76.2369 91° East 121 139 2,000 -600 Descending Boston Center
10:23PM 43.1058 -76.1886 84° East 120 138 1,300 -720 Descending Boston Center
10:25PM 43.1021 -76.1317 95° East  Level FlightAware Approximate
10:32PM 43.1000 -76.1000 90° East  Level FlightAware Approximate